Time;durP1;ratioP1;P1;durP2;ratioP2;P2;SDS_P1;SDS_P2;PMS_P1;PMS_P2;Temp;Humidity;BMP_temperature;BMP_pressure;BME280_temperature;BME280_humidity;BME280_pressure;Samples;Min_cycle;Max_cycle;Signal;HPM_P1;HPM_P2
2020/12/08 00:01:20;;;;;;;31.77;11.60;;;;;;;-9.80;73.75;101582.34;1707887;84;21673;-77
2020/12/08 00:03:48;;;;;;;31.30;11.73;;;;;;;-9.85;73.85;101580.76;1758487;81;21838;-76
2020/12/08 00:06:17;;;;;;;28.50;11.20;;;;;;;-9.89;74.00;101575.34;1758472;81;21164;-77
2020/12/08 00:08:44;;;;;;;32.37;12.67;;;;;;;-9.89;73.99;101577.89;1758392;81;21218;-80
2020/12/08 00:11:16;;;;;;;27.53;11.53;;;;;;;-9.86;73.92;101579.41;1758493;81;21184;-77
2020/12/08 00:13:45;;;;;;;27.97;11.40;;;;;;;-9.89;74.04;101575.34;1758385;81;21180;-77
2020/12/08 00:16:13;;;;;;;27.53;11.87;;;;;;;-9.93;74.13;101566.23;1758565;81;21710;-80
2020/12/08 00:18:42;;;;;;;30.13;12.37;;;;;;;-9.93;74.07;101567.91;1758514;81;21156;-79
2020/12/08 00:21:10;;;;;;;24.87;11.27;;;;;;;-9.98;74.36;101567.59;1758412;81;22272;-79
2020/12/08 00:23:37;;;;;;;30.30;11.90;;;;;;;-9.99;74.48;101560.70;1769585;79;21159;-80
2020/12/08 00:26:05;;;;;;;31.17;11.90;;;;;;;-9.98;74.53;101557.79;1797355;79;21120;-79
2020/12/08 00:28:39;;;;;;;29.50;11.37;;;;;;;-10.00;74.61;101555.13;1797188;76;21219;-80
2020/12/08 00:31:08;;;;;;;33.50;12.17;;;;;;;-9.96;74.63;101553.28;1797366;79;21604;-81
2020/12/08 00:33:35;;;;;;;24.87;11.53;;;;;;;-9.96;74.65;101552.37;1797308;79;21404;-82
2020/12/08 00:36:05;;;;;;;41.00;15.97;;;;;;;-9.95;74.57;101552.49;1797296;79;21132;-79
2020/12/08 00:38:33;;;;;;;30.48;12.23;;;;;;;-9.96;74.60;101537.08;1797190;79;21200;-79
2020/12/08 00:41:01;;;;;;;33.47;12.00;;;;;;;-9.95;74.59;101538.48;1797368;79;21632;-79
2020/12/08 00:43:30;;;;;;;30.40;10.73;;;;;;;-9.95;74.52;101527.00;1797233;79;21152;-84
2020/12/08 00:45:59;;;;;;;36.40;13.23;;;;;;;-9.93;74.52;101520.34;1797543;79;21379;-82
2020/12/08 00:48:27;;;;;;;33.40;13.40;;;;;;;-9.94;74.45;101527.52;1797210;79;21629;-80
2020/12/08 00:50:55;;;;;;;34.30;13.00;;;;;;;-9.94;74.50;101526.24;1770255;79;21138;-84
2020/12/08 00:53:23;;;;;;;35.50;14.40;;;;;;;-9.93;74.45;101521.63;1797270;79;21127;-77
2020/12/08 00:55:51;;;;;;;34.27;12.47;;;;;;;-9.93;74.54;101527.12;1791698;79;21581;-83
2020/12/08 00:58:19;;;;;;;29.53;12.40;;;;;;;-9.91;74.52;101525.56;1795129;79;21609;-84
2020/12/08 01:00:49;;;;;;;32.50;12.87;;;;;;;-9.92;74.65;101516.13;1765711;81;21204;-84
2020/12/08 01:03:18;;;;;;;22.20;9.70;;;;;;;-9.92;74.49;101522.10;1765883;81;21651;-85
2020/12/08 01:05:45;;;;;;;32.43;10.43;;;;;;;-9.92;74.42;101525.05;1786355;79;21163;-82
2020/12/08 01:08:14;;;;;;;19.27;8.80;;;;;;;-9.93;74.50;101521.63;1797383;79;21168;-84
2020/12/08 01:10:42;;;;;;;30.10;12.37;;;;;;;-9.93;74.46;101515.25;1795750;79;22256;-83
2020/12/08 01:13:10;;;;;;;22.93;10.20;;;;;;;-9.92;74.50;101520.83;1796743;79;21628;-84
2020/12/08 01:15:40;;;;;;;29.57;11.00;;;;;;;-9.89;74.58;101520.55;1765772;81;21195;-85
2020/12/08 01:18:08;;;;;;;23.73;9.67;;;;;;;-9.85;74.59;101519.98;1797059;79;21626;-84
2020/12/08 01:20:36;;;;;;;29.00;11.87;;;;;;;-9.83;74.44;101518.42;1797424;79;21240;-85
2020/12/08 01:23:08;;;;;;;27.90;11.93;;;;;;;-9.81;74.41;101519.02;1797196;79;21439;-84
2020/12/08 01:25:37;;;;;;;31.87;10.70;;;;;;;-9.78;74.50;101509.01;1765731;81;21201;-85
2020/12/08 01:28:05;;;;;;;21.60;9.43;;;;;;;-9.74;74.49;101514.81;1770669;79;21582;-81
2020/12/08 01:30:34;;;;;;;23.47;7.37;;;;;;;-9.71;74.35;101512.86;1781351;79;21142;-81
2020/12/08 01:33:02;;;;;;;24.70;10.57;;;;;;;-9.69;74.40;101518.94;1797091;79;21139;-82
2020/12/08 01:35:33;;;;;;;25.73;10.97;;;;;;;-9.64;74.25;101518.84;1765780;81;21371;-82
2020/12/08 01:38:01;;;;;;;;;;;;;;;-9.63;74.43;101521.91;1799745;79;21593;-81
2020/12/08 01:40:30;;;;;;;24.73;10.53;;;;;;;-9.59;74.11;101528.98;1797026;79;20273;-81
2020/12/08 01:42:59;;;;;;;26.60;10.60;;;;;;;-9.62;73.99;101524.94;1765627;81;21225;-80
2020/12/08 01:45:28;;;;;;;21.87;9.60;;;;;;;-9.60;74.04;101517.41;1797045;79;21551;-79
2020/12/08 01:47:57;;;;;;;25.47;10.43;;;;;;;-9.62;73.85;101507.09;1797428;79;21287;-80
2020/12/08 01:50:26;;;;;;;28.20;11.20;;;;;;;-9.58;73.93;101516.72;1796800;79;21136;-82
2020/12/08 01:52:55;;;;;;;24.57;9.30;;;;;;;-9.57;74.01;101523.60;1765858;81;21163;-82
2020/12/08 01:55:25;;;;;;;33.58;11.33;;;;;;;-9.56;73.93;101510.45;1725422;81;21260;-77
2020/12/08 01:57:54;;;;;;;30.67;11.47;;;;;;;-9.55;73.90;101511.80;1796897;79;21180;-77
2020/12/08 02:00:23;;;;;;;23.50;9.87;;;;;;;-9.53;74.02;101512.80;1734439;80;21494;-83
2020/12/08 02:02:52;;;;;;;25.93;8.93;;;;;;;-9.53;73.81;101514.07;1710476;83;21165;-81
2020/12/08 02:05:24;;;;;;;33.00;11.33;;;;;;;-9.53;73.89;101504.27;1709650;82;21169;-82
2020/12/08 02:07:52;;;;;;;27.13;11.43;;;;;;;-9.50;74.07;101510.47;1684702;83;21719;-79
2020/12/08 02:10:20;;;;;;;21.80;9.23;;;;;;;-9.46;74.20;101509.38;1710473;83;21903;-80
2020/12/08 02:12:49;;;;;;;26.57;10.73;;;;;;;-9.45;73.85;101509.86;1710435;83;21492;-81
2020/12/08 02:15:19;;;;;;;31.12;10.78;;;;;;;-9.46;73.99;101510.66;1710484;83;21196;-81
2020/12/08 02:17:47;;;;;;;33.07;9.53;;;;;;;-9.44;73.94;101506.55;1710474;83;21189;-80
2020/12/08 02:20:15;;;;;;;22.80;9.90;;;;;;;-9.43;73.81;101517.23;1710575;83;21657;-79
2020/12/08 02:22:44;;;;;;;21.80;9.97;;;;;;;-9.45;73.83;101512.41;1710792;83;21594;-79
2020/12/08 02:25:12;;;;;;;23.83;9.83;;;;;;;-9.44;73.93;101509.09;1721344;83;21375;-80
2020/12/08 02:27:41;;;;;;;34.50;10.63;;;;;;;-9.41;73.93;101514.39;1733338;82;21184;-80
2020/12/08 02:30:10;;;;;;;22.50;9.80;;;;;;;-9.40;73.94;101511.07;1791896;80;21158;-81
2020/12/08 02:32:39;;;;;;;22.53;9.47;;;;;;;-9.37;73.86;101513.81;1754060;81;21465;-80
2020/12/08 02:35:07;;;;;;;24.43;9.83;;;;;;;-9.36;73.85;101515.56;1708865;84;21142;-78
2020/12/08 02:37:36;;;;;;;27.23;9.53;;;;;;;-9.38;73.72;101507.83;1754025;81;21492;-79
2020/12/08 02:40:05;;;;;;;20.83;9.37;;;;;;;-9.37;73.87;101501.05;1754186;81;21649;-80
2020/12/08 02:42:33;;;;;;;24.13;10.10;;;;;;;-9.37;73.97;101496.83;1680412;84;21198;-79
2020/12/08 02:45:02;;;;;;;22.33;9.93;;;;;;;-9.34;73.88;101503.80;1754184;81;21128;-79
2020/12/08 02:47:30;;;;;;;24.33;9.83;;;;;;;-9.33;73.91;101504.30;1753981;81;21174;-78
2020/12/08 02:49:59;;;;;;;29.30;10.50;;;;;;;-9.32;73.98;101509.48;1733471;82;21595;-79
2020/12/08 02:52:28;;;;;;;25.27;9.63;;;;;;;-9.34;74.00;101504.70;1791872;80;21606;-78
2020/12/08 02:54:56;;;;;;;25.17;11.20;;;;;;;-9.36;73.94;101498.61;1754177;81;21610;-78
2020/12/08 02:57:24;;;;;;;22.47;10.97;;;;;;;-9.35;74.21;101496.94;1733311;82;21998;-78
2020/12/08 02:59:52;;;;;;;23.63;9.67;;;;;;;-9.35;74.29;101495.27;1782697;80;21171;-78
2020/12/08 03:02:21;;;;;;;23.35;10.60;;;;;;;-9.37;74.26;101490.45;1746198;82;21207;-78
2020/12/08 03:04:51;;;;;;;26.33;10.82;;;;;;;-9.30;74.27;101503.22;1758273;81;21194;-80
2020/12/08 03:07:20;;;;;;;23.93;10.27;;;;;;;-9.32;74.10;101493.30;1746209;82;21194;-81
2020/12/08 03:09:48;;;;;;;23.47;9.23;;;;;;;-9.33;74.15;101491.55;1744672;82;22215;-80
2020/12/08 03:12:16;;;;;;;22.07;9.80;;;;;;;-9.30;74.20;101493.89;1746263;82;21139;-79
2020/12/08 03:14:46;;;;;;;18.55;8.38;;;;;;;-9.31;74.11;101494.69;1758497;81;21180;-80
2020/12/08 03:17:15;;;;;;;21.35;9.18;;;;;;;-9.33;74.14;101501.75;1757434;81;21139;-78
2020/12/08 03:19:45;;;;;;;18.87;8.85;;;;;;;-9.32;74.30;101500.55;1746433;82;21151;-77
2020/12/08 03:22:14;;;;;;;19.43;9.03;;;;;;;-9.32;74.26;101497.13;1758298;81;21174;-79
2020/12/08 03:24:48;;;;;;;24.53;10.07;;;;;;;-9.31;74.23;101498.91;1744005;82;21176;-80
2020/12/08 03:27:18;;;;;;;42.37;13.33;;;;;;;-9.30;74.33;101501.54;1755167;81;21451;-80
2020/12/08 03:29:47;;;;;;;26.53;10.20;;;;;;;-9.34;74.43;101492.31;1755236;81;21203;-83
2020/12/08 03:32:16;;;;;;;29.23;10.87;;;;;;;-9.26;74.52;101495.38;1740642;82;21167;-83
2020/12/08 03:34:44;;;;;;;24.90;10.60;;;;;;;-9.26;74.53;101489.88;1739253;82;22348;-83
2020/12/08 03:37:12;;;;;;;25.67;11.53;;;;;;;-9.21;74.61;101482.52;1740704;82;21230;-83
2020/12/08 03:39:40;;;;;;;21.80;11.03;;;;;;;-9.21;74.45;101487.22;1755343;81;22270;-80
2020/12/08 03:42:09;;;;;;;23.33;10.77;;;;;;;-9.19;74.29;101484.37;1755238;81;21578;-82
2020/12/08 03:44:39;;;;;;;25.00;8.80;;;;;;;-9.21;74.34;101482.12;1755487;81;21154;-81
2020/12/08 03:47:09;;;;;;;35.15;10.85;;;;;;;-9.20;74.34;101483.91;1739898;82;21187;-81
2020/12/08 03:49:37;;;;;;;26.47;11.70;;;;;;;-9.17;74.58;101481.94;1755402;81;21162;-81
2020/12/08 03:52:06;;;;;;;29.53;11.70;;;;;;;-9.16;74.36;101488.39;1755374;81;22357;-81
2020/12/08 03:54:34;;;;;;;30.77;10.93;;;;;;;-9.18;74.48;101487.44;1740587;82;21992;-83
2020/12/08 03:57:04;;;;;;;29.52;12.03;;;;;;;-9.18;74.59;101484.89;1755553;81;21108;-83
2020/12/08 03:59:32;;;;;;;25.47;9.07;;;;;;;-9.18;74.51;101484.89;1761961;81;21164;-81
2020/12/08 04:02:05;;;;;;;24.33;11.23;;;;;;;-9.14;74.43;101490.66;1768025;81;21170;-81
2020/12/08 04:04:33;;;;;;;23.47;9.57;;;;;;;-9.14;74.30;101486.83;1815418;79;21345;-80
2020/12/08 04:07:02;;;;;;;28.60;11.50;;;;;;;-9.14;74.47;101498.31;1815623;79;21185;-82
2020/12/08 04:09:32;;;;;;;30.68;11.57;;;;;;;-9.12;74.38;101486.53;1786330;79;26338;-81
2020/12/08 04:12:01;;;;;;;26.47;10.73;;;;;;;-9.13;74.49;101487.73;1757248;81;21202;-82
2020/12/08 04:14:32;;;;;;;23.27;10.37;;;;;;;-9.15;74.23;101481.25;1757314;81;21195;-82
2020/12/08 04:17:01;;;;;;;22.40;10.00;;;;;;;-9.17;74.39;101491.75;1757172;81;21331;-82
2020/12/08 04:19:30;;;;;;;31.15;12.47;;;;;;;-9.17;74.46;101485.36;1757243;81;21623;-82
2020/12/08 04:22:00;;;;;;;28.23;11.30;;;;;;;-9.18;74.47;101483.61;1757253;81;21163;-82
2020/12/08 04:24:30;;;;;;;;;;;;;;;-9.18;74.38;101485.25;1759097;81;21627;-82
2020/12/08 04:26:58;;;;;;;26.57;11.90;;;;;;;-9.18;74.51;101482.70;1729828;82;20556;-81
2020/12/08 04:29:28;;;;;;;28.65;12.55;;;;;;;-9.21;74.59;101471.91;1740638;81;26783;-83
2020/12/08 04:31:56;;;;;;;23.90;11.07;;;;;;;-9.21;74.71;101479.97;1739631;81;21231;-81
2020/12/08 04:34:24;;;;;;;27.37;11.20;;;;;;;-9.21;74.67;101478.30;1765957;81;21635;-85
2020/12/08 04:36:52;;;;;;;29.53;12.97;;;;;;;-9.20;74.77;101480.08;1765780;81;21415;-84
2020/12/08 04:39:20;;;;;;;27.23;11.17;;;;;;;-9.18;74.85;101473.41;1765920;81;21124;-84
2020/12/08 04:41:50;;;;;;;27.60;11.37;;;;;;;-9.19;74.62;101475.45;1765711;81;21732;-85
2020/12/08 04:44:18;;;;;;;17.00;8.38;;;;;;;-9.24;74.47;101480.66;1716839;81;21582;-84
2020/12/08 04:46:50;;;;;;;26.13;11.97;;;;;;;-9.25;74.56;101477.59;1765914;81;21175;-85
2020/12/08 04:49:26;;;;;;;25.20;10.20;;;;;;;-9.21;74.68;101481.24;1846172;76;26568;-84
2020/12/08 04:51:56;;;;;;;25.17;12.18;;;;;;;-9.30;74.28;101476.03;1816456;78;21115;-82
2020/12/08 04:54:24;;;;;;;30.43;11.77;;;;;;;-9.33;74.53;101476.24;1784790;79;21488;-84
2020/12/08 04:56:52;;;;;;;36.63;12.40;;;;;;;-9.38;74.51;101472.12;1816049;79;21605;-84
2020/12/08 04:59:21;;;;;;;27.27;11.50;;;;;;;-9.39;74.63;101478.39;1815970;79;21119;-84
2020/12/08 05:01:50;;;;;;;28.65;12.78;;;;;;;-9.39;74.84;101469.45;1816252;79;21570;-80
2020/12/08 05:04:24;;;;;;;30.00;11.03;;;;;;;-9.41;74.67;101473.17;1816121;79;21621;-81
2020/12/08 05:07:04;;;;;;;31.77;13.13;;;;;;;-9.40;74.54;101470.25;1816176;79;21171;-82
2020/12/08 05:09:46;;;;;;;31.73;11.33;;;;;;;-9.40;74.53;101476.63;1815652;79;21179;-81
2020/12/08 05:12:22;;;;;;;31.12;11.70;;;;;;;-9.41;74.58;101478.67;1816378;79;21598;-81
2020/12/08 05:14:50;;;;;;;25.43;11.63;;;;;;;-9.40;74.57;101480.06;1816301;79;21582;-81
2020/12/08 05:17:24;;;;;;;24.00;9.33;;;;;;;-9.43;74.50;101479.88;1816294;79;21465;-81
2020/12/08 05:20:06;;;;;;;28.97;11.53;;;;;;;-9.44;74.60;101474.66;1815831;79;22112;-82
2020/12/08 05:22:35;;;;;;;25.07;11.07;;;;;;;-9.45;74.70;101476.70;1816044;79;21175;-81
2020/12/08 05:25:12;;;;;;;25.53;11.73;;;;;;;-9.43;74.68;101485.34;1816369;78;21646;-82
2020/12/08 05:27:40;;;;;;;29.13;12.10;;;;;;;-9.45;74.41;101492.00;1813771;79;21127;-83
2020/12/08 05:30:09;;;;;;;29.57;11.80;;;;;;;-9.47;74.62;101485.95;1704307;80;21672;-84
2020/12/08 05:32:44;;;;;;;25.63;10.67;;;;;;;-9.47;74.74;101480.84;1783868;80;22772;-83
2020/12/08 05:35:23;;;;;;;29.30;10.77;;;;;;;-9.45;74.75;101479.25;1783808;80;21602;-84
2020/12/08 05:37:54;;;;;;;26.85;10.68;;;;;;;-9.47;74.71;101479.58;1783958;80;21162;-82
2020/12/08 05:40:24;;;;;;;23.93;10.33;;;;;;;-9.47;74.68;101485.95;1784132;80;21228;-79
2020/12/08 05:42:54;;;;;;;28.38;12.40;;;;;;;-9.46;74.72;101478.38;1784093;80;21212;-77
2020/12/08 05:45:23;;;;;;;27.10;10.40;;;;;;;-9.45;74.94;101480.53;1784274;80;21324;-77
2020/12/08 05:47:58;;;;;;;27.90;12.30;;;;;;;-9.51;74.89;101475.53;1786884;79;21173;-75
2020/12/08 05:50:29;;;;;;;25.73;11.17;;;;;;;-9.53;75.26;101475.81;1793615;78;21173;-76
2020/12/08 05:53:00;;;;;;;28.47;12.13;;;;;;;-9.50;75.43;101479.86;1784118;79;21141;-75
2020/12/08 05:55:32;;;;;;;27.07;11.33;;;;;;;-9.50;75.34;101476.41;1766491;81;21468;-74
2020/12/08 05:58:07;;;;;;;23.00;10.50;;;;;;;-9.50;75.45;101475.13;1767097;81;21365;-73
2020/12/08 06:00:37;;;;;;;26.23;13.00;;;;;;;-9.50;75.46;101470.94;1769980;79;21197;-74
2020/12/08 06:03:13;;;;;;;33.33;12.20;;;;;;;-9.52;75.69;101472.50;1791286;79;21584;-75
2020/12/08 06:05:46;;;;;;;30.33;12.43;;;;;;;-9.50;75.78;101472.20;1797307;79;21671;-75
2020/12/08 06:08:19;;;;;;;41.90;13.20;;;;;;;-9.46;76.21;101473.67;1797822;79;21287;-74
2020/12/08 06:10:54;;;;;;;32.60;12.93;;;;;;;-9.48;75.97;101482.89;1797540;79;21647;-75
2020/12/08 06:13:33;;;;;;;33.20;13.37;;;;;;;-9.46;76.18;101478.78;1797662;79;21178;-74
2020/12/08 06:16:08;;;;;;;60.37;20.80;;;;;;;-9.42;76.39;101484.58;1797820;79;21776;-74
2020/12/08 06:18:37;;;;;;;32.57;14.60;;;;;;;-9.40;76.06;101476.23;1790409;79;21169;-74
2020/12/08 06:21:27;;;;;;;28.65;12.00;;;;;;;-9.39;75.98;101469.05;1793740;79;21630;-74
2020/12/08 06:23:58;;;;;;;33.45;12.82;;;;;;;-9.37;76.01;101468.77;1766465;81;22363;-75
2020/12/08 06:26:40;;;;;;;35.28;13.43;;;;;;;-9.35;75.86;101469.75;1766392;81;21193;-75
2020/12/08 06:29:12;;;;;;;37.00;14.90;;;;;;;-9.34;75.91;101466.80;1786244;79;21206;-75
2020/12/08 06:31:49;;;;;;;34.90;14.13;;;;;;;-9.33;75.89;101471.14;1796089;79;21575;-74
2020/12/08 06:34:25;;;;;;;35.27;13.03;;;;;;;-9.33;76.16;101459.66;1796161;79;21656;-73
2020/12/08 06:36:53;;;;;;;36.70;11.63;;;;;;;-9.28;76.09;101458.28;1777292;80;21823;-75
2020/12/08 06:39:21;;;;;;;30.13;12.97;;;;;;;-9.26;75.98;101471.14;1777022;80;21202;-74
2020/12/08 06:41:49;;;;;;;31.60;14.43;;;;;;;-9.26;76.13;101474.57;1777199;80;21615;-73
2020/12/08 06:44:20;;;;;;;40.13;14.77;;;;;;;-9.23;76.06;101474.76;1777331;80;21203;-74
2020/12/08 06:48:24;;;;;;;39.97;16.20;;;;;;;-9.19;76.26;101466.52;1814318;78;26858;-73
2020/12/08 06:50:54;;;;;;;33.97;13.17;;;;;;;-9.17;76.06;101484.09;1722799;83;21131;-73
2020/12/08 06:53:25;;;;;;;35.53;15.10;;;;;;;-9.19;75.54;101484.37;1720718;81;22361;-74
2020/12/08 06:55:57;;;;;;;46.53;18.73;;;;;;;-9.21;75.80;101477.02;1738268;81;21172;-74
2020/12/08 06:58:25;;;;;;;25.77;11.63;;;;;;;-9.18;75.91;101478.52;1720884;82;21196;-74
2020/12/08 07:01:07;;;;;;;33.27;15.60;;;;;;;-9.12;75.41;101486.53;1846190;76;26559;-73
2020/12/08 07:03:37;;;;;;;29.03;10.47;;;;;;;-9.17;75.66;101482.81;1816163;79;21186;-74
2020/12/08 07:06:06;;;;;;;35.38;14.53;;;;;;;-9.15;75.62;101490.17;1816396;79;22207;-72
2020/12/08 07:08:37;;;;;;;40.40;14.07;;;;;;;-9.13;75.75;101479.68;1816015;79;21111;-78
2020/12/08 07:11:05;;;;;;;29.97;13.00;;;;;;;-9.11;75.69;101484.49;1774369;78;21211;-76
2020/12/08 07:13:33;;;;;;;28.53;12.00;;;;;;;-9.10;75.80;101472.20;1813771;79;21161;-77
2020/12/08 07:16:00;;;;;;;30.13;12.40;;;;;;;-9.04;75.67;101483.58;1813586;79;21667;-77
2020/12/08 07:18:29;;;;;;;33.90;13.97;;;;;;;-9.09;75.47;101488.03;1784750;79;21335;-76
2020/12/08 07:20:58;;;;;;;37.40;15.17;;;;;;;-9.08;75.50;101488.50;1813505;79;21580;-75
2020/12/08 07:23:27;;;;;;;34.20;12.57;;;;;;;-9.03;75.66;101486.64;1784919;79;21165;-76
2020/12/08 07:25:56;;;;;;;39.00;15.78;;;;;;;-9.01;75.28;101488.91;1813597;79;21141;-76
2020/12/08 07:28:25;;;;;;;28.13;11.90;;;;;;;-9.03;75.20;101491.75;1803105;79;21220;-74
2020/12/08 07:30:54;;;;;;;50.57;18.97;;;;;;;-9.10;74.78;101486.24;1783293;78;21751;-75
2020/12/08 07:33:22;;;;;;;43.20;16.70;;;;;;;-9.12;75.41;101476.33;1797726;78;21558;-74
2020/12/08 07:35:50;;;;;;;36.03;15.37;;;;;;;-9.12;75.13;101490.36;1728432;80;21744;-75
2020/12/08 07:38:18;;;;;;;32.87;13.90;;;;;;;-9.08;75.50;101473.19;1782381;80;21111;-77
2020/12/08 07:40:46;;;;;;;46.67;14.30;;;;;;;-9.04;75.51;101487.05;1781894;80;21209;-74
2020/12/08 07:43:18;;;;;;;49.87;16.70;;;;;;;-9.00;75.80;101481.72;1782453;79;21380;-77
2020/12/08 07:45:47;;;;;;;35.70;14.75;;;;;;;-8.99;75.72;101486.06;1808418;79;21190;-74
2020/12/08 07:48:19;;;;;;;61.88;20.70;;;;;;;-8.96;75.97;101478.58;1816962;79;21174;-75
2020/12/08 07:50:46;;;;;;;45.03;16.97;;;;;;;-8.91;76.09;101483.58;1816453;79;21601;-75
2020/12/08 07:53:15;;;;;;;40.33;13.83;;;;;;;-8.86;75.77;101479.64;1816389;79;21171;-75
2020/12/08 07:55:45;;;;;;;25.80;11.77;;;;;;;-8.81;75.59;101475.73;1816613;79;21334;-76
2020/12/08 07:58:13;;;;;;;34.83;13.67;;;;;;;-8.78;75.43;101478.46;1817387;79;21154;-74
2020/12/08 08:00:41;;;;;;;67.20;22.70;;;;;;;-8.77;75.21;101476.38;1788098;79;21165;-73
2020/12/08 08:03:10;;;;;;;31.67;13.50;;;;;;;-8.73;75.50;101477.06;1788740;80;21650;-74
2020/12/08 08:05:37;;;;;;;31.80;13.90;;;;;;;-8.71;75.50;101469.52;1773859;79;21225;-74
2020/12/08 08:08:05;;;;;;;35.43;15.27;;;;;;;-8.67;75.71;101472.75;1781565;80;21659;-76
2020/12/08 08:10:34;;;;;;;33.67;14.13;;;;;;;-8.65;75.69;101468.59;1776115;80;21115;-76
2020/12/08 08:13:01;;;;;;;47.10;16.87;;;;;;;-8.61;75.50;101472.23;1775412;80;21578;-74
2020/12/08 08:15:31;;;;;;;34.57;14.00;;;;;;;-8.60;75.86;101466.32;1786452;80;21162;-73
2020/12/08 08:18:00;;;;;;;37.33;14.87;;;;;;;-8.52;75.79;101460.03;1785564;80;21156;-75
2020/12/08 08:20:28;;;;;;;30.90;13.27;;;;;;;-8.49;75.07;101462.39;1786368;80;22211;-76
2020/12/08 08:22:57;;;;;;;48.35;18.55;;;;;;;-8.49;75.32;101464.03;1786625;80;21642;-74
2020/12/08 08:25:26;;;;;;;31.40;13.53;;;;;;;-8.47;75.47;101460.78;1786328;80;21139;-75
2020/12/08 08:27:56;;;;;;;40.73;15.63;;;;;;;-8.40;75.71;101462.04;1786750;78;21943;-74
2020/12/08 08:30:24;;;;;;;47.63;15.60;;;;;;;-8.31;75.92;101466.80;1786461;80;21891;-74
2020/12/08 08:32:51;;;;;;;30.50;13.00;;;;;;;-8.36;75.08;101463.96;1786409;80;21443;-74
2020/12/08 08:35:20;;;;;;;42.63;16.33;;;;;;;-8.34;74.80;101472.61;1786460;80;21154;-74
2020/12/08 08:37:48;;;;;;;25.00;11.47;;;;;;;-8.27;75.04;101464.92;1786526;80;21641;-74
2020/12/08 08:40:16;;;;;;;23.07;10.40;;;;;;;-8.16;74.21;101473.24;1786272;80;21213;-74
2020/12/08 08:42:44;;;;;;;25.77;11.73;;;;;;;-8.10;73.45;101462.95;1786411;80;21099;-75
2020/12/08 08:45:15;;;;;;;30.43;11.37;;;;;;;-8.00;73.63;101458.02;1774410;77;77257;-82
2020/12/08 08:47:43;;;;;;;22.27;9.83;;;;;;;-7.78;72.60;101458.86;1743139;81;21277;-82
2020/12/08 08:50:13;;;;;;;27.97;12.57;;;;;;;-7.74;71.62;101461.21;1738090;82;21121;-87
2020/12/08 08:52:53;;;;;;;30.05;12.47;;;;;;;-7.61;71.78;101450.50;1731122;81;21010;-85
2020/12/08 08:55:42;;;;;;;32.47;13.70;;;;;;;-7.52;72.56;101447.95;1738105;79;73607;-94
2020/12/08 08:58:23;;;;;;;38.83;15.50;;;;;;;-7.45;72.64;101442.02;1746921;78;21220;-86
2020/12/08 09:00:53;;;;;;;30.30;13.55;;;;;;;-7.35;72.88;101443.81;1705741;80;21242;-85
2020/12/08 09:03:21;;;;;;;29.67;12.17;;;;;;;-7.33;71.56;101442.23;1734306;83;21117;-85
2020/12/08 09:05:50;;;;;;;34.13;14.23;;;;;;;-7.35;71.95;101443.41;1734347;80;21186;-85
2020/12/08 09:08:19;;;;;;;34.27;14.20;;;;;;;-7.40;71.16;101440.59;1740295;80;21077;-86
2020/12/08 09:11:00;;;;;;;38.73;15.67;;;;;;;-7.51;71.29;101446.78;1734323;83;21224;-85
2020/12/08 09:13:35;;;;;;;31.97;12.43;;;;;;;-7.55;70.86;101449.95;1736363;82;21244;-86
2020/12/08 09:16:05;;;;;;;37.40;15.27;;;;;;;-7.53;70.34;101440.69;1731778;83;21109;-84
2020/12/08 09:18:41;;;;;;;124.97;32.90;;;;;;;-7.56;70.76;101439.24;1733899;83;21114;-84
2020/12/08 09:21:09;;;;;;;30.93;12.73;;;;;;;-7.50;70.77;101440.88;1734488;83;21053;-85
2020/12/08 09:23:39;;;;;;;93.47;24.40;;;;;;;-7.48;70.14;101435.83;1734523;82;21375;-86
2020/12/08 09:26:12;;;;;;;96.60;26.57;;;;;;;-7.48;70.16;101432.87;1734439;80;21125;-85
2020/12/08 09:28:58;;;;;;;33.20;14.50;;;;;;;-7.48;70.31;101431.59;1741724;81;21083;-89
2020/12/08 09:31:27;;;;;;;95.67;28.87;;;;;;;-7.52;70.43;101437.35;1735378;79;21181;-84
2020/12/08 09:33:56;;;;;;;205.70;55.67;;;;;;;-7.52;70.98;101432.23;1763363;81;21148;-86
2020/12/08 09:36:30;;;;;;;60.47;23.93;;;;;;;-7.47;71.20;101423.13;1762990;81;21162;-84
2020/12/08 09:38:59;;;;;;;40.67;16.40;;;;;;;-7.41;71.18;101423.48;1763004;80;21100;-85
2020/12/08 09:41:34;;;;;;;184.53;49.43;;;;;;;-7.35;70.97;101427.18;1763056;81;21117;-84
2020/12/08 09:44:08;;;;;;;;;;;;;;;-7.35;71.13;101434.86;1765555;81;21145;-84
2020/12/08 09:46:38;;;;;;;51.63;19.27;;;;;;;-7.41;71.05;101436.28;1762690;81;20739;-85
2020/12/08 09:49:07;;;;;;;31.27;14.07;;;;;;;-7.40;71.15;101438.03;1762918;81;21361;-85
2020/12/08 09:51:40;;;;;;;80.07;28.03;;;;;;;-7.41;70.93;101428.61;1762763;81;21154;-84
2020/12/08 09:54:08;;;;;;;42.03;16.00;;;;;;;-7.37;71.29;101432.61;1763033;79;21152;-85
2020/12/08 09:56:56;;;;;;;46.47;16.17;;;;;;;-7.32;71.06;101439.73;1755252;80;21122;-84
2020/12/08 09:59:24;;;;;;;28.33;12.27;;;;;;;-7.31;71.26;101426.56;1707294;83;21090;-85
2020/12/08 10:01:54;;;;;;;46.70;15.03;;;;;;;-7.26;71.23;101434.09;1712991;83;21224;-85
2020/12/08 10:04:22;;;;;;;34.33;13.83;;;;;;;-7.26;71.01;101436.66;1730493;81;21225;-85
2020/12/08 10:06:53;;;;;;;37.75;15.20;;;;;;;-7.29;70.59;101435.17;1732879;81;21131;-84
2020/12/08 10:09:20;;;;;;;32.30;14.30;;;;;;;-7.31;71.21;101436.80;1754085;81;21559;-84
2020/12/08 10:11:54;;;;;;;34.33;14.27;;;;;;;-7.32;71.03;101437.17;1753992;82;21136;-86
2020/12/08 10:14:23;;;;;;;37.13;15.03;;;;;;;-7.40;71.19;101443.15;1754184;82;21352;-85
2020/12/08 10:16:57;;;;;;;26.77;8.83;;;;;;;-7.36;71.34;101436.91;1757747;80;21115;-86
2020/12/08 10:19:46;;;;;;;27.47;11.10;;;;;;;-7.44;71.04;101423.30;1735060;81;21115;-87
2020/12/08 10:22:19;;;;;;;39.50;15.40;;;;;;;-7.30;71.87;101439.83;1759379;81;21138;-86
2020/12/08 10:24:59;;;;;;;33.33;12.87;;;;;;;-7.24;71.83;101435.06;1783360;77;21071;-87
2020/12/08 10:27:48;;;;;;;32.77;13.57;;;;;;;-7.19;71.74;101436.19;1782635;77;21208;-87
2020/12/08 10:30:20;;;;;;;28.87;11.27;;;;;;;-7.10;71.87;101438.38;1703121;83;21167;-86
2020/12/08 10:32:52;;;;;;;39.93;15.17;;;;;;;-7.15;71.39;101426.98;1656550;82;21192;-88
2020/12/08 10:35:24;;;;;;;33.33;14.00;;;;;;;-7.14;71.78;101425.80;1689489;82;21204;-88
2020/12/08 10:38:18;;;;;;;34.73;12.70;;;;;;;-7.07;71.74;101418.94;1743575;81;21083;-86
2020/12/08 10:40:57;;;;;;;38.77;15.63;;;;;;;-6.92;71.23;101416.72;1764610;79;21461;-86
2020/12/08 10:43:34;;;;;;;38.27;14.53;;;;;;;-6.87;71.60;101423.87;1788899;80;21124;-86
2020/12/08 10:46:06;;;;;;;37.13;14.57;;;;;;;-6.80;71.35;101423.39;1759313;80;21158;-87
2020/12/08 10:51:58;;;;;;;36.00;13.47;;;;;;;-6.67;71.82;101422.38;1722121;82;21156;-87
2020/12/08 10:54:30;;;;;;;43.23;14.17;;;;;;;-6.64;71.16;101413.97;1720812;83;21347;-86
2020/12/08 10:57:03;;;;;;;30.00;13.03;;;;;;;-6.58;70.76;101411.34;1720592;82;21621;-87
2020/12/08 10:59:37;;;;;;;36.20;14.90;;;;;;;-6.48;70.65;101405.41;1693898;83;21628;-86
2020/12/08 11:02:13;;;;;;;33.33;14.10;;;;;;;-6.36;71.05;101408.61;1722458;82;21111;-86
2020/12/08 11:04:51;;;;;;;40.37;14.03;;;;;;;-6.31;70.38;101414.84;1722509;81;21103;-84
2020/12/08 11:07:26;;;;;;;39.27;15.33;;;;;;;-6.26;70.65;101408.26;1722707;82;21104;-86
2020/12/08 11:10:03;;;;;;;40.40;14.60;;;;;;;-6.14;70.30;101401.22;1722295;81;21804;-87
2020/12/08 11:12:41;;;;;;;36.80;14.43;;;;;;;-6.02;69.90;101400.08;1748416;82;21116;-86
2020/12/08 11:15:12;;;;;;;39.07;16.00;;;;;;;-6.01;69.24;101405.67;1745255;82;21171;-87
2020/12/08 11:17:43;;;;;;;36.30;14.63;;;;;;;-5.95;69.39;101399.58;1726146;82;21155;-86
2020/12/08 11:20:33;;;;;;;34.27;14.07;;;;;;;-5.91;69.29;101404.03;1703157;83;21093;-85
2020/12/08 11:23:06;;;;;;;35.37;14.97;;;;;;;-5.65;69.05;101395.45;1706115;81;21214;-87
2020/12/08 11:25:48;;;;;;;33.37;13.67;;;;;;;-5.65;69.05;101395.45;1735072;79;21768;-88
2020/12/08 11:28:28;;;;;;;41.27;15.40;;;;;;;-5.46;68.24;101384.38;1795145;78;21128;-86
2020/12/08 11:31:05;;;;;;;37.43;15.63;;;;;;;-5.23;67.71;101393.17;1806645;78;21018;-83
2020/12/08 11:33:36;;;;;;;50.20;15.90;;;;;;;-5.27;67.24;101384.05;1828618;77;21454;-86